createdAt,value
2023-07-20T00:01:09.711Z,19.40
2023-07-20T00:03:36.983Z,19.42
2023-07-20T00:06:06.991Z,19.32
2023-07-20T00:08:33.799Z,19.32
2023-07-20T00:11:00.761Z,19.22
2023-07-20T00:13:27.869Z,19.34
2023-07-20T00:15:55.186Z,19.20
2023-07-20T00:18:22.527Z,19.24
2023-07-20T00:20:52.367Z,19.17
2023-07-20T00:23:20.401Z,19.12
2023-07-20T00:25:48.214Z,19.15
2023-07-20T00:28:17.028Z,19.11
2023-07-20T00:30:44.650Z,19.12
2023-07-20T00:33:12.230Z,19.03
2023-07-20T00:35:42.035Z,18.99
2023-07-20T00:38:09.015Z,18.93
2023-07-20T00:40:39.399Z,18.92
2023-07-20T00:43:06.491Z,19.00
2023-07-20T00:45:33.889Z,18.92
2023-07-20T00:48:00.943Z,18.84
2023-07-20T00:50:30.748Z,18.86
2023-07-20T00:52:58.006Z,18.97
2023-07-20T00:55:25.347Z,18.98
2023-07-20T00:57:52.233Z,18.89
2023-07-20T01:00:19.245Z,18.95
2023-07-20T01:02:46.712Z,18.85
2023-07-20T01:05:14.099Z,18.91
2023-07-20T01:07:48.174Z,18.78
2023-07-20T01:10:18.717Z,18.84
2023-07-20T01:12:49.599Z,18.87
2023-07-20T01:15:16.604Z,18.78
2023-07-20T01:17:43.830Z,18.80
2023-07-20T01:20:13.895Z,18.87
2023-07-20T01:23:10.765Z,18.86
2023-07-20T01:26:08.635Z,18.63
2023-07-20T01:28:39.017Z,18.54
2023-07-20T01:31:25.258Z,18.48
2023-07-20T01:33:53.537Z,18.60
2023-07-20T01:36:20.984Z,18.60
2023-07-20T01:38:48.255Z,18.65
2023-07-20T01:41:16.504Z,18.60
2023-07-20T01:43:46.353Z,18.68
2023-07-20T01:46:13.530Z,18.51
2023-07-20T01:48:41.805Z,18.55
2023-07-20T01:51:08.636Z,18.38
2023-07-20T01:53:35.832Z,18.58
2023-07-20T01:56:02.835Z,18.50
2023-07-20T01:58:29.972Z,18.45
2023-07-20T02:00:57.306Z,18.47
2023-07-20T02:03:24.268Z,18.45
2023-07-20T02:05:51.196Z,18.50
2023-07-20T02:08:18.108Z,18.41
2023-07-20T02:10:48.093Z,18.46
2023-07-20T02:13:14.865Z,18.53
2023-07-20T02:15:42.559Z,18.38
2023-07-20T02:18:09.627Z,18.31
2023-07-20T02:20:38.290Z,18.33
2023-07-20T02:23:05.311Z,18.30
2023-07-20T02:25:36.584Z,18.34
2023-07-20T02:28:05.354Z,18.25
2023-07-20T02:30:32.209Z,18.39
2023-07-20T02:32:59.459Z,18.35
2023-07-20T02:35:26.737Z,18.29
2023-07-20T02:37:53.878Z,18.31
2023-07-20T02:40:21.028Z,18.33
2023-07-20T02:42:48.079Z,18.22
2023-07-20T02:45:14.860Z,18.11
2023-07-20T02:47:41.675Z,18.21
2023-07-20T02:50:09.364Z,18.19
2023-07-20T02:52:36.608Z,18.17
2023-07-20T02:55:05.068Z,18.05
2023-07-20T02:57:31.863Z,18.04
2023-07-20T02:59:59.451Z,18.01
2023-07-20T03:02:26.744Z,18.03
2023-07-20T03:04:53.787Z,18.22
2023-07-20T03:07:21.410Z,18.12
2023-07-20T03:09:49.602Z,18.15
2023-07-20T03:12:16.633Z,18.07
2023-07-20T03:14:45.347Z,17.99
2023-07-20T03:17:12.425Z,18.10
2023-07-20T03:19:39.355Z,18.04
2023-07-20T03:22:07.061Z,17.98
2023-07-20T03:24:33.962Z,18.12
2023-07-20T03:27:00.740Z,18.12
2023-07-20T03:29:29.059Z,17.96
2023-07-20T03:31:55.968Z,18.01
2023-07-20T03:34:22.753Z,18.13
2023-07-20T03:36:49.873Z,18.11
2023-07-20T03:39:18.026Z,18.10
2023-07-20T03:41:45.107Z,17.83
2023-07-20T03:44:12.319Z,17.85
2023-07-20T03:46:39.498Z,17.72
2023-07-20T03:49:06.840Z,17.66
2023-07-20T03:51:33.656Z,17.85
2023-07-20T03:54:00.534Z,17.63
2023-07-20T03:56:27.701Z,17.63
2023-07-20T03:58:56.311Z,17.53
2023-07-20T04:01:23.426Z,17.46
2023-07-20T04:03:51.549Z,17.33
2023-07-20T04:06:18.400Z,17.35
2023-07-20T04:08:45.633Z,17.30
2023-07-20T04:11:12.748Z,17.39
2023-07-20T04:14:01.458Z,17.35
2023-07-20T04:16:28.371Z,17.33
2023-07-20T04:18:57.055Z,17.37
2023-07-20T04:21:24.638Z,17.37
2023-07-20T04:23:51.815Z,17.27
2023-07-20T04:26:19.423Z,17.27
2023-07-20T04:28:46.554Z,17.27
2023-07-20T04:31:14.330Z,17.27
2023-07-20T04:33:41.573Z,17.30
2023-07-20T04:36:08.785Z,17.27
2023-07-20T04:38:37.112Z,17.38
2023-07-20T04:41:03.982Z,17.31
2023-07-20T04:43:30.779Z,17.22
2023-07-20T04:45:58.745Z,17.36
2023-07-20T04:48:25.964Z,17.34
2023-07-20T04:50:52.808Z,17.35
2023-07-20T04:53:19.619Z,17.23
2023-07-20T04:55:50.152Z,17.27
2023-07-20T04:58:17.233Z,17.34
2023-07-20T05:00:44.423Z,17.51
2023-07-20T05:03:11.358Z,17.54
2023-07-20T05:05:38.404Z,17.89
2023-07-20T05:08:05.531Z,18.21
2023-07-20T05:10:32.444Z,18.13
2023-07-20T05:13:00.051Z,18.21
2023-07-20T05:15:27.004Z,18.44
2023-07-20T05:17:54.293Z,18.48
2023-07-20T05:20:21.334Z,18.56
2023-07-20T05:22:48.412Z,18.52
2023-07-20T05:25:15.612Z,18.70
2023-07-20T05:27:45.892Z,18.90
2023-07-20T05:30:12.940Z,19.17
2023-07-20T05:32:39.884Z,20.00
2023-07-20T05:35:07.388Z,20.87
2023-07-20T05:37:34.969Z,20.96
2023-07-20T05:40:02.188Z,21.06
2023-07-20T05:42:29.945Z,21.75
2023-07-20T05:44:56.702Z,22.29
2023-07-20T05:47:23.708Z,22.69
2023-07-20T05:49:52.089Z,22.93
2023-07-20T05:52:18.912Z,23.33
2023-07-20T05:54:47.149Z,22.01
2023-07-20T05:57:13.931Z,22.14
2023-07-20T05:59:41.151Z,22.23
2023-07-20T06:02:12.344Z,22.06
2023-07-20T06:04:40.287Z,21.66
2023-07-20T06:07:07.303Z,22.63
2023-07-20T06:09:34.118Z,22.52
2023-07-20T06:12:01.001Z,21.92
2023-07-20T06:14:30.365Z,21.58
2023-07-20T06:16:57.123Z,21.44
2023-07-20T06:19:25.078Z,22.27
2023-07-20T06:21:52.211Z,23.01
2023-07-20T06:24:19.049Z,21.98
2023-07-20T06:26:45.839Z,21.69
2023-07-20T06:29:13.836Z,22.18
2023-07-20T06:31:43.404Z,22.48
2023-07-20T06:34:10.309Z,22.99
2023-07-20T06:36:38.221Z,23.54
2023-07-20T06:44:06.042Z,22.54
2023-07-20T06:46:33.272Z,22.66
2023-07-20T06:51:30.575Z,22.54
2023-07-20T06:53:57.414Z,22.36
2023-07-20T06:56:26.138Z,22.38
2023-07-20T06:58:53.552Z,22.51
2023-07-20T07:01:20.637Z,22.82
2023-07-20T07:03:48.512Z,22.84
2023-07-20T07:06:17.168Z,22.79
2023-07-20T07:08:44.298Z,22.98
2023-07-20T07:11:11.433Z,22.79
2023-07-20T07:13:38.258Z,23.06
2023-07-20T07:16:09.721Z,22.84
2023-07-20T07:18:37.287Z,22.98
2023-07-20T07:21:07.077Z,22.95
2023-07-20T07:23:34.353Z,23.12
2023-07-20T07:26:01.668Z,23.32
2023-07-20T07:28:34.853Z,22.48
2023-07-20T07:31:02.056Z,22.58
2023-07-20T07:33:32.911Z,23.02
2023-07-20T07:36:02.420Z,23.30
2023-07-20T07:38:56.499Z,23.43
2023-07-20T07:41:18.242Z,23.53
2023-07-20T07:43:45.726Z,23.52
2023-07-20T07:46:15.411Z,23.94
2023-07-20T07:48:43.098Z,23.09
2023-07-20T07:51:09.827Z,22.31
2023-07-20T07:53:36.713Z,23.18
2023-07-20T07:56:04.311Z,23.33
2023-07-20T07:58:32.593Z,24.09
2023-07-20T08:00:59.798Z,23.88
2023-07-20T08:03:26.864Z,24.38
2023-07-20T08:05:56.903Z,23.67
2023-07-20T08:08:26.908Z,23.18
2023-07-20T08:10:56.684Z,23.33
2023-07-20T08:13:24.631Z,23.91
2023-07-20T08:15:51.921Z,24.42
2023-07-20T08:18:19.331Z,24.35
2023-07-20T08:20:48.131Z,24.23
2023-07-20T08:23:15.270Z,24.35
2023-07-20T08:25:46.359Z,24.39
2023-07-20T08:28:17.050Z,24.10
2023-07-20T08:30:48.458Z,24.57
2023-07-20T08:33:15.943Z,24.09
2023-07-20T08:35:42.909Z,24.88
2023-07-20T08:38:12.491Z,25.04
2023-07-20T08:40:47.300Z,24.59
2023-07-20T08:43:15.200Z,24.78
2023-07-20T08:45:43.397Z,24.94
2023-07-20T08:48:10.195Z,24.91
2023-07-20T08:50:39.931Z,24.97
2023-07-20T08:53:06.999Z,24.86
2023-07-20T08:55:34.102Z,23.94
2023-07-20T08:58:01.817Z,24.56
2023-07-20T09:00:30.052Z,25.09
2023-07-20T09:02:57.020Z,24.84
2023-07-20T09:05:27.942Z,25.09
2023-07-20T09:07:56.180Z,25.79
2023-07-20T09:10:25.443Z,25.92
2023-07-20T09:12:52.542Z,24.33
2023-07-20T09:15:23.060Z,24.68
2023-07-20T09:17:50.581Z,25.44
2023-07-20T09:20:22.212Z,25.40
2023-07-20T09:22:54.083Z,24.77
2023-07-20T09:25:25.352Z,25.25
2023-07-20T09:27:53.914Z,25.23
2023-07-20T09:30:20.806Z,25.54
2023-07-20T09:45:58.385Z,25.94
2023-07-20T09:50:56.098Z,25.77
2023-07-20T09:53:22.826Z,26.15
2023-07-20T09:55:50.060Z,25.77
2023-07-20T09:58:17.616Z,25.89
2023-07-20T10:03:18.917Z,25.68
2023-07-20T10:05:53.649Z,25.84
2023-07-20T10:10:54.152Z,26.66
2023-07-20T10:13:34.659Z,26.59
2023-07-20T10:16:19.747Z,26.69
2023-07-20T10:19:01.123Z,26.58
2023-07-20T10:23:58.902Z,26.67
2023-07-20T10:26:27.216Z,26.73
2023-07-20T10:28:54.985Z,26.23
2023-07-20T10:31:22.332Z,26.24
2023-07-20T10:33:49.161Z,26.89
2023-07-20T10:36:16.048Z,26.59
2023-07-20T10:38:46.086Z,26.43
2023-07-20T10:41:41.654Z,26.81
2023-07-20T10:44:08.976Z,25.80
2023-07-20T10:46:52.157Z,27.24
2023-07-20T10:49:20.438Z,27.27
2023-07-20T10:51:48.731Z,27.31
2023-07-20T10:54:18.932Z,27.55
2023-07-20T10:56:48.109Z,27.61
2023-07-20T10:59:37.152Z,28.04
2023-07-20T11:02:07.734Z,28.83
2023-07-20T11:04:47.787Z,28.36
2023-07-20T11:07:18.256Z,28.06
2023-07-20T11:09:46.851Z,26.07
2023-07-20T11:12:38.429Z,27.60
2023-07-20T11:15:06.726Z,27.43
2023-07-20T11:17:33.985Z,27.90
2023-07-20T11:22:33.611Z,26.86
2023-07-20T11:25:02.016Z,27.87
2023-07-20T11:27:29.169Z,28.33
2023-07-20T11:29:56.007Z,28.65
2023-07-20T11:32:23.695Z,28.99
2023-07-20T11:34:50.733Z,28.75
2023-07-20T11:37:21.613Z,28.52
2023-07-20T11:39:48.650Z,28.51
2023-07-20T11:44:47.263Z,29.64
2023-07-20T11:47:14.530Z,28.18
2023-07-20T11:49:45.432Z,29.10
2023-07-20T11:52:13.280Z,28.37
2023-07-20T11:54:40.980Z,28.10
2023-07-20T11:57:07.984Z,27.88
2023-07-20T11:59:34.876Z,28.45
2023-07-20T12:02:05.201Z,28.82
2023-07-20T12:04:32.992Z,29.10
2023-07-20T12:06:59.967Z,28.78
2023-07-20T12:09:35.090Z,29.34
2023-07-20T12:12:11.954Z,29.73
2023-07-20T12:14:41.688Z,29.47
2023-07-20T12:17:09.560Z,29.31
2023-07-20T12:19:39.849Z,29.71
2023-07-20T12:22:07.805Z,29.33
2023-07-20T12:24:34.991Z,29.39
2023-07-20T12:27:02.259Z,29.92
2023-07-20T12:29:29.742Z,29.74
2023-07-20T12:31:56.775Z,29.50
2023-07-20T12:34:24.526Z,29.72
2023-07-20T12:36:52.433Z,29.62
2023-07-20T12:39:19.553Z,29.99
2023-07-20T12:41:46.829Z,30.61
2023-07-20T12:44:14.403Z,30.04
2023-07-20T12:46:41.264Z,30.44
2023-07-20T12:49:08.428Z,30.06
2023-07-20T12:51:36.538Z,30.23
2023-07-20T12:54:05.511Z,30.10
2023-07-20T12:59:04.919Z,29.83
2023-07-20T13:01:31.720Z,30.36
2023-07-20T13:06:29.816Z,29.83
2023-07-20T13:08:57.616Z,30.02
2023-07-20T13:11:25.701Z,30.43
2023-07-20T13:13:53.601Z,29.38
2023-07-20T13:16:20.439Z,30.31
2023-07-20T13:18:47.399Z,31.02
2023-07-20T13:21:16.346Z,31.11
2023-07-20T13:23:46.017Z,31.65
2023-07-20T13:26:13.703Z,30.95
2023-07-20T13:28:43.650Z,29.93
2023-07-20T13:31:12.340Z,30.53
2023-07-20T13:33:41.105Z,30.78
2023-07-20T13:36:09.477Z,30.86
2023-07-20T13:38:36.668Z,30.78
2023-07-20T13:41:03.562Z,30.66
2023-07-20T13:43:30.571Z,30.77
2023-07-20T13:46:01.112Z,31.12
2023-07-20T13:48:31.108Z,31.28
2023-07-20T13:51:00.526Z,30.74
2023-07-20T13:58:31.908Z,30.52
2023-07-20T14:00:59.874Z,30.95
2023-07-20T14:03:26.826Z,30.89
2023-07-20T14:08:24.569Z,30.58
2023-07-20T14:13:31.089Z,30.09
2023-07-20T14:16:07.536Z,29.82
2023-07-20T14:18:34.583Z,30.42
2023-07-20T14:21:04.357Z,30.98
2023-07-20T14:23:32.363Z,31.12
2023-07-20T14:25:59.818Z,30.84
2023-07-20T14:28:27.009Z,31.65
2023-07-20T14:30:54.290Z,31.92
2023-07-20T14:33:22.075Z,31.53
2023-07-20T14:35:51.603Z,32.19
2023-07-20T14:38:18.960Z,32.40
2023-07-20T14:40:46.717Z,32.59
2023-07-20T14:43:13.849Z,33.37
2023-07-20T14:45:43.009Z,33.08
2023-07-20T14:48:10.281Z,32.03
2023-07-20T14:50:39.904Z,31.73
2023-07-20T14:53:07.113Z,32.09
2023-07-20T14:55:34.171Z,32.12
2023-07-20T14:58:01.258Z,31.84
2023-07-20T15:00:29.431Z,32.01
2023-07-20T15:02:56.514Z,32.07
2023-07-20T15:05:24.655Z,32.58
2023-07-20T15:07:54.456Z,32.20
2023-07-20T15:10:23.957Z,31.37
2023-07-20T15:12:50.782Z,32.16
2023-07-20T15:15:21.194Z,32.38
2023-07-20T15:17:50.204Z,32.55
2023-07-20T15:20:20.019Z,32.99
2023-07-20T15:22:50.071Z,31.76
2023-07-20T15:25:17.307Z,31.53
2023-07-20T15:27:50.509Z,31.65
2023-07-20T15:35:19.005Z,31.49
2023-07-20T15:37:46.808Z,31.12
2023-07-20T15:40:14.100Z,31.30
2023-07-20T15:42:42.248Z,31.24
2023-07-20T15:45:10.647Z,30.59
2023-07-20T15:47:38.079Z,31.11
2023-07-20T15:50:05.778Z,32.00
2023-07-20T15:53:03.769Z,32.50
2023-07-20T16:03:37.803Z,32.47
2023-07-20T16:06:07.090Z,32.64
2023-07-20T16:08:34.350Z,31.75
2023-07-20T16:11:01.494Z,30.95
2023-07-20T16:13:28.557Z,31.74
2023-07-20T16:15:56.553Z,31.75
2023-07-20T16:18:23.343Z,31.77
2023-07-20T16:20:50.527Z,31.65
2023-07-20T16:23:17.320Z,32.30
2023-07-20T16:25:47.552Z,32.32
2023-07-20T16:28:14.774Z,32.46
2023-07-20T16:30:41.894Z,31.89
2023-07-20T16:33:09.773Z,31.77
2023-07-20T16:38:14.235Z,32.96
2023-07-20T16:43:11.458Z,29.74
2023-07-20T16:45:41.235Z,29.22
2023-07-20T16:48:08.391Z,29.56
2023-07-20T16:50:35.591Z,28.92
2023-07-20T16:53:02.303Z,28.02
2023-07-20T16:55:31.263Z,29.38
2023-07-20T16:57:57.959Z,28.33
2023-07-20T17:00:25.467Z,27.81
2023-07-20T17:02:53.174Z,27.63
2023-07-20T17:05:20.422Z,28.34
2023-07-20T17:07:47.604Z,27.81
2023-07-20T17:10:15.031Z,27.98
2023-07-20T17:12:41.970Z,28.59
2023-07-20T17:15:08.959Z,28.81
2023-07-20T17:17:36.486Z,28.26
2023-07-20T17:22:33.878Z,27.50
2023-07-20T17:28:46.157Z,29.18
2023-07-20T17:30:21.663Z,28.54
2023-07-20T17:32:50.124Z,29.32
2023-07-20T17:35:16.952Z,28.90
2023-07-20T17:45:15.125Z,28.34
2023-07-20T17:47:42.580Z,28.74
2023-07-20T17:50:15.615Z,28.00
2023-07-20T17:52:43.765Z,28.38
2023-07-20T17:55:15.675Z,28.10
2023-07-20T17:57:43.083Z,28.46
2023-07-20T18:02:42.925Z,28.30
2023-07-20T18:05:09.927Z,27.85
2023-07-20T18:07:36.687Z,28.54
2023-07-20T18:10:03.555Z,27.94
2023-07-20T18:12:31.596Z,27.83
2023-07-20T18:14:58.331Z,28.63
2023-07-20T18:17:27.138Z,29.17
2023-07-20T18:19:54.268Z,27.22
2023-07-20T18:22:21.519Z,26.69
2023-07-20T18:24:50.385Z,26.29
2023-07-20T18:27:18.209Z,26.47
2023-07-20T18:29:45.349Z,26.09
2023-07-20T18:32:12.235Z,26.27
2023-07-20T18:34:39.259Z,26.28
2023-07-20T18:37:07.469Z,25.98
2023-07-20T18:39:34.390Z,26.16
2023-07-20T18:42:01.146Z,25.92
2023-07-20T18:44:28.049Z,25.17
2023-07-20T18:46:58.350Z,24.90
2023-07-20T18:49:25.230Z,24.39
2023-07-20T18:51:51.957Z,24.42
2023-07-20T18:54:19.095Z,24.31
2023-07-20T18:56:46.000Z,24.03
2023-07-20T18:59:12.747Z,23.91
2023-07-20T19:01:39.557Z,23.88
2023-07-20T19:04:06.662Z,23.80
2023-07-20T19:06:33.879Z,23.71
2023-07-20T19:09:01.234Z,23.54
2023-07-20T19:13:58.022Z,23.48
2023-07-20T19:16:25.013Z,23.39
2023-07-20T19:18:52.622Z,23.32
2023-07-20T19:21:20.596Z,23.23
2023-07-20T19:23:47.529Z,23.21
2023-07-20T19:26:14.488Z,23.20
2023-07-20T19:28:42.904Z,23.14
2023-07-20T19:31:10.044Z,22.92
2023-07-20T19:33:37.534Z,22.90
2023-07-20T19:36:04.625Z,22.94
2023-07-20T19:38:31.826Z,22.97
2023-07-20T19:40:58.594Z,23.10
2023-07-20T19:43:25.765Z,23.17
2023-07-20T19:45:52.667Z,22.99
2023-07-20T19:48:19.740Z,22.92
2023-07-20T19:50:47.285Z,22.65
2023-07-20T19:55:46.174Z,22.68
2023-07-20T19:58:13.280Z,22.38
2023-07-20T20:05:43.717Z,22.17
2023-07-20T20:12:03.558Z,22.21
2023-07-20T20:14:30.374Z,22.12
2023-07-20T20:16:57.137Z,22.10
2023-07-20T20:19:23.948Z,22.18
2023-07-20T20:21:50.788Z,21.98
2023-07-20T20:24:17.990Z,21.98
2023-07-20T20:26:47.732Z,22.15
2023-07-20T20:29:14.822Z,22.32
2023-07-20T20:31:41.888Z,22.06
2023-07-20T20:34:08.730Z,22.18
2023-07-20T20:36:35.595Z,22.11
2023-07-20T20:39:02.479Z,22.17
2023-07-20T20:41:30.009Z,21.97
2023-07-20T20:43:56.916Z,22.34
2023-07-20T20:46:24.878Z,21.83
2023-07-20T20:48:51.856Z,21.85
2023-07-20T20:51:19.681Z,21.88
2023-07-20T20:53:46.465Z,21.97
2023-07-20T20:56:13.267Z,22.07
2023-07-20T20:58:40.454Z,21.63
2023-07-20T21:01:07.723Z,21.52
2023-07-20T21:03:34.560Z,21.54
2023-07-20T21:06:01.312Z,21.55
2023-07-20T21:08:28.259Z,21.40
2023-07-20T21:10:58.235Z,21.41
2023-07-20T21:13:25.435Z,21.45
2023-07-20T21:15:52.800Z,21.27
2023-07-20T21:18:19.649Z,21.32
2023-07-20T21:20:46.857Z,21.30
2023-07-20T21:23:13.651Z,21.44
2023-07-20T21:25:40.383Z,21.41
2023-07-20T21:28:07.185Z,21.41
2023-07-20T21:30:33.915Z,21.56
2023-07-20T21:33:01.265Z,21.28
2023-07-20T21:35:28.434Z,21.32
2023-07-20T21:37:55.219Z,21.45
2023-07-20T21:40:22.041Z,21.47
2023-07-20T21:42:50.880Z,21.52
2023-07-20T21:45:17.767Z,21.57
2023-07-20T21:47:44.610Z,21.61
2023-07-20T21:50:11.672Z,21.55
2023-07-20T21:52:38.383Z,21.56
2023-07-20T21:55:06.871Z,21.47
2023-07-20T21:57:33.660Z,21.44
2023-07-20T22:00:00.440Z,21.23
2023-07-20T22:02:27.306Z,21.20
2023-07-20T22:04:54.365Z,21.17
2023-07-20T22:07:21.848Z,21.07
2023-07-20T22:09:49.012Z,21.13
2023-07-20T22:12:15.764Z,21.08
2023-07-20T22:14:43.128Z,21.06
2023-07-20T22:17:10.630Z,21.21
2023-07-20T22:19:37.538Z,21.18
2023-07-20T22:22:04.440Z,21.08
2023-07-20T22:24:31.297Z,21.11
2023-07-20T22:26:58.108Z,21.03
2023-07-20T22:29:24.834Z,21.20
2023-07-20T22:31:52.203Z,21.53
2023-07-20T22:34:19.436Z,21.55
2023-07-20T22:36:46.194Z,21.60
2023-07-20T22:39:12.973Z,21.73
2023-07-20T22:41:39.749Z,21.96
2023-07-20T22:44:06.464Z,22.19
2023-07-20T22:46:33.369Z,22.36
2023-07-20T22:49:00.121Z,22.22
2023-07-20T22:51:26.861Z,21.71
2023-07-20T22:53:53.596Z,21.79
2023-07-20T22:56:20.331Z,21.62
2023-07-20T22:58:47.159Z,21.29
2023-07-20T23:01:14.018Z,21.54
2023-07-20T23:03:40.960Z,20.75
2023-07-20T23:06:08.246Z,20.31
2023-07-20T23:08:35.071Z,20.18
2023-07-20T23:11:01.847Z,20.16
2023-07-20T23:13:28.636Z,20.24
2023-07-20T23:15:55.904Z,19.96
2023-07-20T23:18:22.668Z,19.78
2023-07-20T23:20:49.756Z,19.59
2023-07-20T23:23:16.521Z,19.67
2023-07-20T23:25:43.273Z,20.25
2023-07-20T23:28:10.452Z,20.19
2023-07-20T23:30:37.453Z,19.98
2023-07-20T23:33:04.434Z,19.95
2023-07-20T23:35:31.704Z,19.64
2023-07-20T23:37:58.446Z,19.58
2023-07-20T23:40:25.268Z,19.84
2023-07-20T23:42:52.240Z,20.38
2023-07-20T23:45:19.618Z,19.68
2023-07-20T23:47:47.684Z,19.56
2023-07-20T23:50:14.783Z,19.55
2023-07-20T23:52:41.969Z,19.56
2023-07-20T23:55:09.156Z,19.59
2023-07-20T23:57:35.964Z,19.55
